Time;durP1;ratioP1;P1;durP2;ratioP2;P2;SDS_P1;SDS_P2;PMS_P1;PMS_P2;Temp;Humidity;BMP_temperature;BMP_pressure;BME280_temperature;BME280_humidity;BME280_pressure;Samples;Min_cycle;Max_cycle;Signal;HPM_P1;HPM_P2
2021/12/09 00:01:22;;;;;;;6.88;0.70;;;;;;;;;;5092015;28;20541;-75
2021/12/09 00:03:49;;;;;;;8.07;1.30;;;;;;;;;;5094525;28;20040;-75
2021/12/09 00:06:15;;;;;;;7.32;1.20;;;;;;;;;;5093030;28;20372;-75
2021/12/09 00:08:42;;;;;;;9.32;1.20;;;;;;;;;;5094280;28;20043;-74
2021/12/09 00:11:07;;;;;;;6.30;0.80;;;;;;;;;;5076318;28;20387;-74
2021/12/09 00:13:33;;;;;;;7.90;1.20;;;;;;;;;;5094479;28;20036;-75
2021/12/09 00:15:59;;;;;;;2.85;0.63;;;;;;;;;;5092961;28;20382;-78
2021/12/09 00:18:24;;;;;;;7.80;0.90;;;;;;;;;;5094271;28;20090;-77
2021/12/09 00:20:50;;;;;;;9.80;1.38;;;;;;;;;;5094328;28;20069;-78
2021/12/09 00:23:16;;;;;;;10.77;1.48;;;;;;;;;;5094229;28;20051;-77
2021/12/09 00:25:43;;;;;;;10.73;1.55;;;;;;;;;;5093069;28;20032;-76
2021/12/09 00:28:08;;;;;;;12.60;2.08;;;;;;;;;;5094206;28;20088;-78
2021/12/09 00:30:35;;;;;;;7.40;1.35;;;;;;;;;;5094077;28;20161;-75
2021/12/09 00:33:02;;;;;;;11.35;2.10;;;;;;;;;;5075040;28;20028;-77
2021/12/09 00:35:32;;;;;;;10.88;1.60;;;;;;;;;;5093446;28;20400;-77
2021/12/09 00:38:08;;;;;;;10.35;1.75;;;;;;;;;;5075836;28;20109;-78
2021/12/09 00:40:34;;;;;;;9.35;1.20;;;;;;;;;;5075839;28;20085;-78
2021/12/09 00:43:00;;;;;;;7.65;1.30;;;;;;;;;;5093777;28;20111;-77
2021/12/09 00:45:26;;;;;;;6.95;2.13;;;;;;;;;;5093958;28;20115;-78
2021/12/09 00:47:52;;;;;;;8.23;2.05;;;;;;;;;;5093746;28;20036;-77
2021/12/09 00:50:18;;;;;;;10.00;1.60;;;;;;;;;;5093645;28;20099;-79
2021/12/09 00:52:44;;;;;;;9.88;1.20;;;;;;;;;;5093589;28;20048;-75
2021/12/09 00:55:10;;;;;;;7.72;2.20;;;;;;;;;;5093536;28;20517;-79
2021/12/09 00:57:37;;;;;;;8.15;1.95;;;;;;;;;;5093514;28;20036;-77
2021/12/09 01:00:08;;;;;;;12.45;2.53;;;;;;;;;;5092170;28;20046;-78
2021/12/09 01:02:34;;;;;;;12.75;2.35;;;;;;;;;;5091222;28;20536;-77
2021/12/09 01:04:59;;;;;;;6.65;1.13;;;;;;;;;;5082612;28;20058;-77
2021/12/09 01:07:24;;;;;;;10.02;1.80;;;;;;;;;;5083306;28;20115;-77
2021/12/09 01:09:50;;;;;;;9.65;0.90;;;;;;;;;;5080963;28;20062;-79
2021/12/09 01:12:15;;;;;;;8.98;1.75;;;;;;;;;;5082256;28;20020;-79
2021/12/09 01:14:41;;;;;;;11.90;2.88;;;;;;;;;;5083793;28;20050;-78
2021/12/09 01:17:08;;;;;;;7.60;1.02;;;;;;;;;;5081552;28;20103;-77
2021/12/09 01:19:34;;;;;;;3.75;1.10;;;;;;;;;;5066137;28;20060;-77
2021/12/09 01:21:59;;;;;;;11.55;1.15;;;;;;;;;;5081590;28;20498;-78
2021/12/09 01:24:25;;;;;;;11.50;1.73;;;;;;;;;;5083563;28;20032;-79
2021/12/09 01:26:50;;;;;;;6.10;1.65;;;;;;;;;;5084930;28;20408;-77
2021/12/09 01:29:20;;;;;;;6.55;1.40;;;;;;;;;;5093289;28;20399;-75
2021/12/09 01:31:54;;;;;;;;;;;;;;;;;;5093667;28;20028;-77
2021/12/09 01:34:21;;;;;;;7.05;1.55;;;;;;;;;;5092889;28;19908;-77
2021/12/09 01:36:49;;;;;;;7.15;1.98;;;;;;;;;;5092053;28;20044;-77
2021/12/09 01:39:15;;;;;;;8.20;1.35;;;;;;;;;;5091739;28;20028;-76
2021/12/09 01:41:40;;;;;;;12.07;1.83;;;;;;;;;;5093166;28;20035;-78
2021/12/09 01:44:06;;;;;;;8.68;1.63;;;;;;;;;;5092928;28;20028;-78
2021/12/09 01:46:31;;;;;;;10.88;1.23;;;;;;;;;;5092866;28;20039;-79
2021/12/09 01:48:57;;;;;;;6.43;1.02;;;;;;;;;;5092967;28;20548;-78
2021/12/09 01:51:22;;;;;;;8.27;0.80;;;;;;;;;;5092871;28;20039;-80
2021/12/09 01:53:48;;;;;;;8.38;1.35;;;;;;;;;;5092872;28;20065;-80
2021/12/09 01:56:20;;;;;;;11.05;2.17;;;;;;;;;;5092884;28;20048;-80
2021/12/09 01:58:46;;;;;;;7.38;1.83;;;;;;;;;;5093163;28;20031;-79
2021/12/09 02:01:11;;;;;;;6.78;1.23;;;;;;;;;;5092731;28;20535;-78
2021/12/09 02:03:37;;;;;;;6.93;1.77;;;;;;;;;;5092823;28;20123;-77
2021/12/09 02:06:03;;;;;;;7.13;1.13;;;;;;;;;;5092814;28;20463;-78
2021/12/09 02:08:28;;;;;;;9.15;1.25;;;;;;;;;;5091474;28;20394;-82
2021/12/09 02:10:54;;;;;;;4.10;0.57;;;;;;;;;;5092552;28;20039;-79
2021/12/09 02:13:20;;;;;;;4.50;0.50;;;;;;;;;;5092734;28;20031;-79
2021/12/09 02:15:46;;;;;;;4.10;0.88;;;;;;;;;;5074612;28;20040;-79
2021/12/09 02:18:12;;;;;;;4.47;0.90;;;;;;;;;;5091876;28;20028;-79
2021/12/09 02:20:38;;;;;;;6.95;1.98;;;;;;;;;;5091272;28;20024;-80
2021/12/09 02:23:09;;;;;;;6.00;1.13;;;;;;;;;;5092456;28;20032;-80
2021/12/09 02:25:35;;;;;;;8.05;1.40;;;;;;;;;;5091672;28;20074;-77
2021/12/09 02:28:00;;;;;;;6.90;1.08;;;;;;;;;;5092348;28;20036;-79
2021/12/09 02:30:26;;;;;;;8.73;0.85;;;;;;;;;;5091185;28;20044;-82
2021/12/09 02:32:51;;;;;;;10.32;2.13;;;;;;;;;;5092221;28;20039;-79
2021/12/09 02:35:17;;;;;;;14.80;2.00;;;;;;;;;;5074589;28;20059;-81
2021/12/09 02:37:44;;;;;;;10.57;2.03;;;;;;;;;;5092358;28;20475;-82
2021/12/09 02:40:10;;;;;;;3.85;0.73;;;;;;;;;;5092346;28;20036;-77
2021/12/09 02:42:36;;;;;;;10.65;1.00;;;;;;;;;;5091173;28;20040;-77
2021/12/09 02:45:02;;;;;;;5.40;1.13;;;;;;;;;;5092227;28;20039;-77
2021/12/09 02:47:28;;;;;;;6.32;1.20;;;;;;;;;;5091955;28;20040;-75
2021/12/09 02:49:53;;;;;;;6.82;1.33;;;;;;;;;;5092166;28;20378;-80
2021/12/09 02:52:19;;;;;;;6.63;1.00;;;;;;;;;;5091467;28;20042;-79
2021/12/09 02:54:45;;;;;;;12.27;1.90;;;;;;;;;;5092458;28;20043;-78
2021/12/09 02:57:10;;;;;;;7.10;0.90;;;;;;;;;;5090919;28;20028;-79
2021/12/09 02:59:36;;;;;;;6.60;1.33;;;;;;;;;;5092110;28;20095;-80
2021/12/09 03:02:04;;;;;;;10.23;1.20;;;;;;;;;;5091980;28;20467;-80
2021/12/09 03:04:47;;;;;;;5.38;0.80;;;;;;;;;;5090829;28;20032;-80
2021/12/09 03:07:15;;;;;;;6.35;0.93;;;;;;;;;;5092117;28;20065;-80
2021/12/09 03:09:48;;;;;;;12.82;2.00;;;;;;;;;;5092526;28;20039;-78
2021/12/09 03:12:18;;;;;;;7.22;0.93;;;;;;;;;;5092095;28;20491;-78
2021/12/09 03:14:43;;;;;;;;;;;;;;;;;;5092186;28;20105;-76
2021/12/09 03:17:09;;;;;;;15.93;2.30;;;;;;;;;;5091770;28;19912;-79
2021/12/09 03:19:34;;;;;;;10.35;1.48;;;;;;;;;;5092438;28;20036;-79
2021/12/09 03:22:02;;;;;;;8.35;1.08;;;;;;;;;;5091816;28;20502;-77
2021/12/09 03:24:28;;;;;;;9.10;1.30;;;;;;;;;;5074084;28;20032;-83
2021/12/09 03:26:55;;;;;;;5.97;1.08;;;;;;;;;;5091771;28;20360;-77
2021/12/09 03:29:21;;;;;;;5.28;1.45;;;;;;;;;;5075055;28;20075;-78
2021/12/09 03:31:48;;;;;;;9.05;1.48;;;;;;;;;;5093696;28;20544;-79
2021/12/09 03:34:14;;;;;;;8.00;0.88;;;;;;;;;;5093923;28;20076;-77
2021/12/09 03:36:40;;;;;;;7.88;1.45;;;;;;;;;;5095105;28;20115;-77
2021/12/09 03:39:08;;;;;;;10.65;1.60;;;;;;;;;;5095036;28;20043;-79
2021/12/09 03:41:34;;;;;;;9.52;1.75;;;;;;;;;;5094972;28;20395;-81
2021/12/09 03:43:59;;;;;;;9.75;1.10;;;;;;;;;;5076792;28;20123;-79
2021/12/09 03:46:25;;;;;;;10.55;2.53;;;;;;;;;;5093753;28;20081;-78
2021/12/09 03:48:51;;;;;;;8.50;1.73;;;;;;;;;;5095326;28;20375;-77
2021/12/09 03:51:16;;;;;;;9.90;1.75;;;;;;;;;;5094810;28;20036;-82
2021/12/09 03:53:41;;;;;;;10.00;2.92;;;;;;;;;;5093631;28;20111;-79
2021/12/09 03:56:07;;;;;;;6.38;1.65;;;;;;;;;;5094674;28;20043;-77
2021/12/09 03:58:35;;;;;;;9.80;0.80;;;;;;;;;;5094672;28;20036;-74
2021/12/09 04:01:03;;;;;;;7.43;1.00;;;;;;;;;;5093612;28;20028;-80
2021/12/09 04:03:29;;;;;;;7.82;1.30;;;;;;;;;;5078063;28;20055;-77
2021/12/09 04:05:55;;;;;;;8.40;1.20;;;;;;;;;;5070984;28;20036;-78
2021/12/09 04:08:21;;;;;;;7.80;1.58;;;;;;;;;;5070422;28;20047;-76
2021/12/09 04:10:51;;;;;;;7.15;1.58;;;;;;;;;;5077463;28;20472;-77
2021/12/09 04:13:17;;;;;;;8.43;1.15;;;;;;;;;;5090289;28;20028;-76
2021/12/09 04:15:42;;;;;;;12.18;1.52;;;;;;;;;;5090769;28;20077;-75
2021/12/09 04:18:09;;;;;;;9.45;1.23;;;;;;;;;;5090521;28;20093;-81
2021/12/09 04:20:34;;;;;;;6.32;0.93;;;;;;;;;;5090456;28;20036;-81
2021/12/09 04:23:00;;;;;;;10.77;1.98;;;;;;;;;;5090331;28;20039;-81
2021/12/09 04:25:26;;;;;;;11.63;1.48;;;;;;;;;;5090537;28;20039;-77
2021/12/09 04:27:53;;;;;;;4.72;1.00;;;;;;;;;;5088874;28;20051;-81
2021/12/09 04:30:19;;;;;;;6.15;1.25;;;;;;;;;;5071959;28;20043;-81
2021/12/09 04:32:45;;;;;;;6.55;0.93;;;;;;;;;;5088798;28;20032;-83
2021/12/09 04:35:11;;;;;;;7.40;0.90;;;;;;;;;;5090373;28;20058;-78
2021/12/09 04:37:38;;;;;;;1.98;0.40;;;;;;;;;;5090306;28;20025;-80
2021/12/09 04:40:05;;;;;;;7.60;1.17;;;;;;;;;;5089732;28;20137;-81
2021/12/09 04:42:30;;;;;;;6.07;1.05;;;;;;;;;;5088823;28;20458;-81
2021/12/09 04:44:56;;;;;;;11.18;1.08;;;;;;;;;;5089888;28;20112;-80
2021/12/09 04:47:21;;;;;;;6.07;1.05;;;;;;;;;;5090318;28;20055;-80
2021/12/09 04:49:47;;;;;;;9.02;1.40;;;;;;;;;;5089868;28;20106;-80
2021/12/09 04:52:13;;;;;;;13.30;1.90;;;;;;;;;;5090109;28;20114;-82
2021/12/09 04:54:41;;;;;;;5.10;1.60;;;;;;;;;;5089894;28;20394;-70
2021/12/09 04:57:07;;;;;;;11.57;1.30;;;;;;;;;;5089711;28;20024;-83
2021/12/09 04:59:32;;;;;;;7.32;1.58;;;;;;;;;;5071308;28;20448;-80
2021/12/09 05:01:58;;;;;;;9.00;1.08;;;;;;;;;;5088699;28;20028;-74
2021/12/09 05:04:23;;;;;;;5.50;1.15;;;;;;;;;;5089925;28;20364;-78
2021/12/09 05:06:49;;;;;;;5.90;1.42;;;;;;;;;;5088243;28;20119;-81
2021/12/09 05:09:18;;;;;;;7.38;1.25;;;;;;;;;;5089763;28;20093;-76
2021/12/09 05:14:12;;;;;;;7.40;0.90;;;;;;;;;;5088541;28;20044;-79
2021/12/09 05:16:38;;;;;;;9.50;1.33;;;;;;;;;;5089548;28;20541;-74
2021/12/09 05:19:03;;;;;;;12.40;2.70;;;;;;;;;;5089542;28;20043;-80
2021/12/09 05:21:34;;;;;;;8.48;1.55;;;;;;;;;;5089428;28;20036;-79
2021/12/09 05:24:00;;;;;;;7.35;1.10;;;;;;;;;;5089439;28;20036;-76
2021/12/09 05:26:29;;;;;;;7.90;1.40;;;;;;;;;;5089387;28;20020;-78
2021/12/09 05:28:57;;;;;;;9.32;1.63;;;;;;;;;;5089149;28;20523;-76
2021/12/09 05:34:07;;;;;;;9.88;1.88;;;;;;;;;;5089216;28;20032;-79
2021/12/09 05:36:33;;;;;;;12.32;1.92;;;;;;;;;;5089083;28;20098;-79
2021/12/09 05:38:58;;;;;;;11.65;2.05;;;;;;;;;;5088776;28;20028;-80
2021/12/09 05:41:24;;;;;;;10.52;1.42;;;;;;;;;;5087971;28;20073;-75
2021/12/09 05:43:49;;;;;;;10.18;2.15;;;;;;;;;;5088961;28;20047;-75
2021/12/09 05:46:16;;;;;;;5.25;1.30;;;;;;;;;;5089143;28;20036;-79
2021/12/09 05:48:41;;;;;;;14.55;2.85;;;;;;;;;;5069815;28;20040;-76
2021/12/09 05:51:07;;;;;;;12.15;1.65;;;;;;;;;;5087901;28;20047;-75
2021/12/09 05:53:32;;;;;;;8.65;1.17;;;;;;;;;;5088720;28;20526;-77
2021/12/09 05:55:58;;;;;;;7.32;1.35;;;;;;;;;;5088932;28;20024;-79
2021/12/09 05:58:24;;;;;;;11.85;1.40;;;;;;;;;;5087609;28;20189;-78
2021/12/09 06:00:51;;;;;;;10.73;1.13;;;;;;;;;;5088814;28;20547;-77
2021/12/09 06:03:18;;;;;;;8.80;1.02;;;;;;;;;;5088891;28;20133;-80
2021/12/09 06:05:43;;;;;;;8.65;1.65;;;;;;;;;;5064488;28;20083;-74
2021/12/09 06:08:09;;;;;;;11.23;2.33;;;;;;;;;;5071464;28;20105;-73
2021/12/09 06:10:36;;;;;;;10.02;1.40;;;;;;;;;;5063357;28;20029;-73
2021/12/09 06:13:02;;;;;;;8.85;1.23;;;;;;;;;;5067298;28;20039;-74
2021/12/09 06:15:27;;;;;;;11.32;1.33;;;;;;;;;;5068616;28;20036;-74
2021/12/09 06:17:53;;;;;;;13.18;1.42;;;;;;;;;;5068308;28;20127;-73
2021/12/09 06:20:18;;;;;;;11.02;1.33;;;;;;;;;;5068777;28;20043;-75
2021/12/09 06:22:44;;;;;;;10.55;1.85;;;;;;;;;;5068105;28;20032;-75
2021/12/09 06:25:17;;;;;;;17.38;1.85;;;;;;;;;;5068480;28;20032;-74
2021/12/09 06:27:44;;;;;;;17.50;2.30;;;;;;;;;;5050268;28;20071;-72
2021/12/09 06:30:10;;;;;;;9.20;1.38;;;;;;;;;;5068285;28;20065;-74
2021/12/09 06:32:35;;;;;;;8.80;1.30;;;;;;;;;;5083798;28;20036;-73
2021/12/09 06:35:03;;;;;;;11.20;2.38;;;;;;;;;;5067134;28;20090;-74
2021/12/09 06:37:28;;;;;;;15.73;2.15;;;;;;;;;;5066825;28;20032;-77
2021/12/09 06:39:54;;;;;;;11.75;1.75;;;;;;;;;;5067120;28;20029;-76
2021/12/09 06:42:19;;;;;;;3.00;1.02;;;;;;;;;;5066715;28;20033;-73
2021/12/09 06:44:44;;;;;;;7.57;1.45;;;;;;;;;;5068436;28;20448;-75
2021/12/09 06:47:10;;;;;;;14.88;1.88;;;;;;;;;;5067909;28;20036;-74
2021/12/09 06:49:35;;;;;;;19.55;3.50;;;;;;;;;;5068030;28;20032;-75
2021/12/09 06:52:01;;;;;;;13.95;2.25;;;;;;;;;;5067848;28;20487;-75
2021/12/09 06:54:26;;;;;;;10.77;1.73;;;;;;;;;;5066591;28;20475;-75
2021/12/09 06:56:52;;;;;;;7.50;1.40;;;;;;;;;;5067747;28;20037;-75
2021/12/09 06:59:17;;;;;;;9.60;1.90;;;;;;;;;;5067866;28;20029;-76
2021/12/09 07:01:43;;;;;;;12.27;1.45;;;;;;;;;;5067872;28;20621;-76
2021/12/09 07:04:08;;;;;;;6.20;1.38;;;;;;;;;;5070502;28;20480;-77
2021/12/09 07:06:35;;;;;;;7.55;1.73;;;;;;;;;;5071183;28;20032;-75
2021/12/09 07:09:03;;;;;;;19.33;3.47;;;;;;;;;;5070031;28;20036;-73
2021/12/09 07:11:31;;;;;;;10.80;1.70;;;;;;;;;;5069781;28;20062;-75
2021/12/09 07:13:57;;;;;;;22.08;2.90;;;;;;;;;;5052398;28;20132;-74
2021/12/09 07:16:23;;;;;;;12.52;1.55;;;;;;;;;;5068070;28;20024;-74
2021/12/09 07:18:50;;;;;;;17.85;1.83;;;;;;;;;;5069277;28;20385;-75
2021/12/09 07:21:16;;;;;;;10.70;2.10;;;;;;;;;;5070805;28;20021;-75
2021/12/09 07:23:43;;;;;;;9.95;1.35;;;;;;;;;;5059973;28;20032;-74
2021/12/09 07:26:09;;;;;;;6.95;1.35;;;;;;;;;;5069497;28;20516;-73
2021/12/09 07:28:35;;;;;;;15.82;1.98;;;;;;;;;;5085178;28;20127;-73
2021/12/09 07:31:01;;;;;;;11.93;1.42;;;;;;;;;;5091111;28;20125;-75
2021/12/09 07:33:27;;;;;;;15.88;1.88;;;;;;;;;;5088720;28;20105;-77
2021/12/09 07:35:54;;;;;;;6.28;1.20;;;;;;;;;;5089222;28;20448;-74
2021/12/09 07:38:20;;;;;;;17.27;1.95;;;;;;;;;;5090365;28;20103;-75
2021/12/09 07:40:46;;;;;;;21.25;1.88;;;;;;;;;;5089786;28;20032;-76
2021/12/09 07:43:11;;;;;;;9.35;1.58;;;;;;;;;;5071999;28;20055;-75
2021/12/09 07:45:37;;;;;;;4.70;1.10;;;;;;;;;;5090629;28;20040;-74
2021/12/09 07:48:03;;;;;;;10.00;1.88;;;;;;;;;;5090371;28;20046;-75
2021/12/09 07:50:31;;;;;;;6.93;1.60;;;;;;;;;;5090861;28;20353;-77
2021/12/09 07:52:57;;;;;;;6.03;1.77;;;;;;;;;;5071869;28;20028;-78
2021/12/09 07:55:25;;;;;;;9.35;1.45;;;;;;;;;;5090543;28;20533;-75
2021/12/09 07:57:51;;;;;;;11.93;1.45;;;;;;;;;;5090846;28;20036;-77
2021/12/09 08:00:19;;;;;;;9.23;1.10;;;;;;;;;;5090028;28;20044;-77
2021/12/09 08:02:45;;;;;;;8.30;1.55;;;;;;;;;;5089819;28;20032;-75
2021/12/09 08:05:12;;;;;;;7.80;1.02;;;;;;;;;;5086816;28;20158;-74
2021/12/09 08:07:41;;;;;;;11.55;1.60;;;;;;;;;;5070247;28;20036;-74
2021/12/09 08:10:08;;;;;;;11.13;2.35;;;;;;;;;;5070108;28;20052;-74
2021/12/09 08:12:35;;;;;;;8.52;1.55;;;;;;;;;;5069987;28;20545;-75
2021/12/09 08:15:01;;;;;;;12.15;1.77;;;;;;;;;;5069324;28;20040;-75
2021/12/09 08:17:45;;;;;;;14.07;2.45;;;;;;;;;;5070472;28;20024;-75
2021/12/09 08:20:13;;;;;;;9.15;1.60;;;;;;;;;;5070282;28;20043;-76
2021/12/09 08:22:39;;;;;;;7.65;1.20;;;;;;;;;;5069937;28;20039;-74
2021/12/09 08:25:09;;;;;;;9.55;1.70;;;;;;;;;;5069924;28;20489;-76
2021/12/09 08:27:36;;;;;;;8.65;2.08;;;;;;;;;;5069698;28;20044;-76
2021/12/09 08:30:06;;;;;;;4.18;0.85;;;;;;;;;;5086928;28;20475;-76
2021/12/09 08:32:35;;;;;;;5.90;1.55;;;;;;;;;;5086889;28;20036;-77
2021/12/09 08:35:01;;;;;;;6.40;1.63;;;;;;;;;;5088643;28;20032;-72
2021/12/09 08:37:29;;;;;;;10.15;1.58;;;;;;;;;;5090307;28;20039;-77
2021/12/09 08:39:55;;;;;;;9.75;1.30;;;;;;;;;;5085429;28;20111;-76
2021/12/09 08:42:21;;;;;;;8.23;0.85;;;;;;;;;;5070738;28;20399;-74
2021/12/09 08:44:47;;;;;;;12.77;1.63;;;;;;;;;;5087893;28;20466;-76
2021/12/09 08:47:14;;;;;;;14.13;1.90;;;;;;;;;;5070224;28;20541;-75
2021/12/09 08:49:39;;;;;;;9.68;1.80;;;;;;;;;;5088099;28;20028;-75
2021/12/09 08:52:06;;;;;;;10.90;2.45;;;;;;;;;;5081893;28;20121;-75
2021/12/09 08:54:31;;;;;;;9.48;1.35;;;;;;;;;;5073641;28;20611;-77
2021/12/09 08:56:57;;;;;;;12.52;1.75;;;;;;;;;;5063950;28;20115;-76
2021/12/09 08:59:24;;;;;;;18.63;1.52;;;;;;;;;;5065410;28;20056;-69
2021/12/09 09:01:51;;;;;;;11.73;1.45;;;;;;;;;;5066735;28;20037;-68
2021/12/09 09:04:16;;;;;;;7.10;1.20;;;;;;;;;;5074182;28;20039;-68
2021/12/09 09:06:52;;;;;;;10.25;1.38;;;;;;;;;;5079004;28;20114;-67
2021/12/09 09:09:17;;;;;;;10.25;1.67;;;;;;;;;;5066613;28;20458;-67
2021/12/09 09:11:43;;;;;;;7.15;1.85;;;;;;;;;;5075637;28;20115;-68
2021/12/09 09:14:08;;;;;;;8.10;1.23;;;;;;;;;;5068906;28;20063;-68
2021/12/09 09:16:34;;;;;;;8.20;1.27;;;;;;;;;;5078822;28;20035;-67
2021/12/09 09:18:59;;;;;;;9.95;1.77;;;;;;;;;;5067698;28;20391;-68
2021/12/09 09:21:25;;;;;;;10.77;1.88;;;;;;;;;;5067711;28;20036;-67
2021/12/09 09:23:51;;;;;;;4.55;1.00;;;;;;;;;;5067667;28;20467;-67
2021/12/09 09:26:18;;;;;;;6.10;1.15;;;;;;;;;;5067885;28;20029;-67
2021/12/09 09:28:45;;;;;;;13.35;1.80;;;;;;;;;;5050682;28;20032;-68
2021/12/09 09:31:10;;;;;;;7.13;1.40;;;;;;;;;;5068493;28;20094;-67
2021/12/09 09:33:36;;;;;;;8.35;1.75;;;;;;;;;;5068776;28;20195;-68
2021/12/09 09:36:01;;;;;;;14.65;2.00;;;;;;;;;;5068946;28;20044;-67
2021/12/09 09:38:27;;;;;;;9.30;1.25;;;;;;;;;;5068891;28;20028;-67
2021/12/09 09:40:59;;;;;;;10.90;2.03;;;;;;;;;;5080330;28;20075;-68
2021/12/09 09:43:31;;;;;;;5.68;1.48;;;;;;;;;;5085381;28;20042;-67
2021/12/09 09:45:59;;;;;;;7.03;1.13;;;;;;;;;;5068768;28;20032;-70
2021/12/09 09:48:24;;;;;;;10.90;1.30;;;;;;;;;;5087101;28;20047;-67
2021/12/09 09:50:50;;;;;;;9.18;2.17;;;;;;;;;;5086002;28;20024;-67
2021/12/09 09:53:15;;;;;;;8.20;1.40;;;;;;;;;;5085605;28;20059;-68
2021/12/09 09:55:41;;;;;;;13.95;1.60;;;;;;;;;;5085537;28;20471;-68
2021/12/09 09:58:07;;;;;;;8.20;1.20;;;;;;;;;;5083853;28;20075;-68
2021/12/09 10:00:32;;;;;;;9.68;1.10;;;;;;;;;;5084238;28;20388;-70
2021/12/09 10:02:59;;;;;;;8.40;1.92;;;;;;;;;;5085400;28;20060;-68
2021/12/09 10:05:28;;;;;;;5.93;1.05;;;;;;;;;;5067734;28;20036;-68
2021/12/09 10:07:55;;;;;;;9.15;1.75;;;;;;;;;;5067853;28;20040;-67
2021/12/09 10:10:21;;;;;;;10.85;1.92;;;;;;;;;;5068221;28;20040;-69
2021/12/09 10:12:56;;;;;;;8.20;1.35;;;;;;;;;;5085950;28;20070;-67
2021/12/09 10:15:39;;;;;;;16.45;1.70;;;;;;;;;;5069318;28;20028;-67
2021/12/09 10:18:05;;;;;;;8.82;1.45;;;;;;;;;;5069982;28;20420;-66
2021/12/09 10:20:48;;;;;;;12.55;2.00;;;;;;;;;;5088823;28;20032;-67
2021/12/09 10:23:23;;;;;;;9.10;1.20;;;;;;;;;;5088103;28;20036;-67
2021/12/09 10:26:15;;;;;;;9.05;1.08;;;;;;;;;;5088840;28;20074;-68
2021/12/09 10:28:43;;;;;;;10.95;2.40;;;;;;;;;;5064283;28;20052;-67
2021/12/09 10:31:15;;;;;;;9.90;1.85;;;;;;;;;;5070144;28;20502;-68
2021/12/09 10:34:03;;;;;;;7.85;1.33;;;;;;;;;;5070104;28;20036;-67
2021/12/09 10:36:44;;;;;;;6.15;1.40;;;;;;;;;;5069939;28;20034;-68
2021/12/09 10:39:13;;;;;;;9.30;1.75;;;;;;;;;;5091009;28;20039;-67
2021/12/09 10:41:39;;;;;;;13.50;1.80;;;;;;;;;;5090342;28;20040;-67
2021/12/09 10:44:04;;;;;;;11.07;1.55;;;;;;;;;;5091116;28;20085;-67
2021/12/09 10:46:57;;;;;;;8.35;1.42;;;;;;;;;;5091767;28;20035;-67
2021/12/09 10:49:23;;;;;;;7.13;1.50;;;;;;;;;;5090716;28;20031;-67
2021/12/09 10:51:57;;;;;;;13.35;2.90;;;;;;;;;;5091711;28;20077;-68
2021/12/09 10:54:49;;;;;;;14.57;2.67;;;;;;;;;;5090435;28;20169;-67
2021/12/09 10:57:23;;;;;;;11.40;1.33;;;;;;;;;;5088580;28;20387;-66
2021/12/09 10:59:49;;;;;;;10.93;1.52;;;;;;;;;;5091114;28;20067;-68
2021/12/09 11:02:14;;;;;;;9.13;1.40;;;;;;;;;;5090185;28;20487;-68
2021/12/09 11:04:40;;;;;;;15.00;2.95;;;;;;;;;;5091076;28;20056;-66
2021/12/09 11:07:28;;;;;;;13.32;2.05;;;;;;;;;;5091079;28;20039;-67
2021/12/09 11:10:12;;;;;;;12.13;1.80;;;;;;;;;;5073287;28;20043;-71
2021/12/09 11:12:37;;;;;;;10.85;1.70;;;;;;;;;;5090247;28;20032;-68
2021/12/09 11:15:03;;;;;;;12.40;2.55;;;;;;;;;;5090351;28;20388;-68
2021/12/09 11:17:33;;;;;;;22.83;2.50;;;;;;;;;;5090846;28;20038;-67
2021/12/09 11:19:59;;;;;;;11.27;1.92;;;;;;;;;;5090966;28;20042;-68
2021/12/09 11:22:30;;;;;;;9.73;2.00;;;;;;;;;;5091312;28;20450;-66
2021/12/09 11:25:00;;;;;;;14.52;2.90;;;;;;;;;;5072422;28;20478;-68
2021/12/09 11:27:27;;;;;;;14.65;2.45;;;;;;;;;;5073040;28;20457;-66
2021/12/09 11:29:57;;;;;;;3.75;1.70;;;;;;;;;;5073005;28;20039;-68
2021/12/09 11:32:40;;;;;;;;;;;;;;;;;;5091339;28;20070;-67
2021/12/09 11:35:21;;;;;;;16.55;2.70;;;;;;;;;;5073062;28;20034;-66
2021/12/09 11:38:02;;;;;;;16.60;2.17;;;;;;;;;;5090089;28;20028;-68
2021/12/09 11:40:39;;;;;;;10.35;2.95;;;;;;;;;;5073060;28;20067;-67
2021/12/09 11:43:10;;;;;;;11.38;1.75;;;;;;;;;;5089667;28;20059;-67
2021/12/09 11:45:45;;;;;;;12.52;1.58;;;;;;;;;;5072837;28;20040;-66
2021/12/09 11:48:21;;;;;;;9.02;1.73;;;;;;;;;;5056345;28;20421;-64
2021/12/09 11:50:55;;;;;;;5.07;1.33;;;;;;;;;;5089183;28;20054;-66
2021/12/09 11:53:33;;;;;;;10.63;1.60;;;;;;;;;;5090585;28;20024;-66
2021/12/09 11:56:21;;;;;;;7.30;1.77;;;;;;;;;;5070893;28;20487;-65
2021/12/09 12:07:57;;;;;;;7.35;1.63;;;;;;;;;;5090473;28;20093;-67
2021/12/09 12:12:45;;;;;;;10.48;1.95;;;;;;;;;;5090684;28;19934;-69
2021/12/09 12:15:30;;;;;;;14.50;1.88;;;;;;;;;;5091281;28;20060;-67
2021/12/09 12:20:53;;;;;;;10.63;2.33;;;;;;;;;;5088715;28;20036;-68
2021/12/09 12:40:43;;;;;;;17.50;2.10;;;;;;;;;;5084994;28;20024;-69
2021/12/09 12:43:23;;;;;;;14.13;2.10;;;;;;;;;;5078120;28;20365;-68
2021/12/09 12:53:57;;;;;;;13.48;1.92;;;;;;;;;;5069899;28;20035;-68
2021/12/09 12:56:32;;;;;;;13.55;1.73;;;;;;;;;;5051756;28;20036;-68
2021/12/09 12:59:16;;;;;;;13.65;1.60;;;;;;;;;;5068316;28;20044;-68
2021/12/09 13:05:08;;;;;;;10.47;1.70;;;;;;;;;;5061717;28;20044;-68
2021/12/09 13:10:29;;;;;;;14.20;1.85;;;;;;;;;;5067882;28;20072;-68
2021/12/09 13:13:06;;;;;;;10.32;1.70;;;;;;;;;;5051264;28;20133;-68
2021/12/09 13:15:50;;;;;;;11.13;1.65;;;;;;;;;;5068368;28;20119;-68
2021/12/09 13:18:40;;;;;;;18.17;2.25;;;;;;;;;;5068221;28;20411;-68
2021/12/09 13:21:27;;;;;;;11.88;1.80;;;;;;;;;;5051566;28;20032;-71
2021/12/09 13:24:14;;;;;;;10.75;2.03;;;;;;;;;;5048421;28;20067;-70
2021/12/09 13:27:00;;;;;;;7.90;1.40;;;;;;;;;;5076730;28;20487;-69
2021/12/09 13:30:24;;;;;;;10.00;2.22;;;;;;;;;;5060527;28;20146;-68
2021/12/09 13:33:01;;;;;;;10.45;1.52;;;;;;;;;;5083932;28;20052;-69
2021/12/09 13:46:30;;;;;;;14.07;1.30;;;;;;;;;;5065828;28;20036;-68
2021/12/09 13:49:20;;;;;;;11.52;1.80;;;;;;;;;;5067319;28;20048;-68
2021/12/09 13:54:26;;;;;;;11.98;2.00;;;;;;;;;;5066819;28;20086;-69
2021/12/09 13:57:02;;;;;;;13.50;2.55;;;;;;;;;;5067553;28;20039;-68
2021/12/09 13:59:36;;;;;;;11.70;2.83;;;;;;;;;;5065871;28;20147;-67
2021/12/09 14:02:20;;;;;;;11.35;1.55;;;;;;;;;;5065755;28;20040;-69
2021/12/09 14:04:55;;;;;;;11.60;1.63;;;;;;;;;;5066520;28;20033;-68
2021/12/09 14:07:43;;;;;;;9.68;1.85;;;;;;;;;;5049439;28;20078;-68
2021/12/09 14:10:22;;;;;;;3.55;0.90;;;;;;;;;;5067082;28;20082;-67
2021/12/09 14:12:57;;;;;;;7.47;1.25;;;;;;;;;;5049984;28;20052;-67
2021/12/09 14:15:39;;;;;;;8.25;2.17;;;;;;;;;;5068000;28;20033;-67
2021/12/09 14:18:16;;;;;;;16.17;1.60;;;;;;;;;;5068394;28;20096;-67
2021/12/09 14:20:50;;;;;;;8.07;1.40;;;;;;;;;;5050271;28;20044;-67
2021/12/09 14:23:18;;;;;;;7.88;1.58;;;;;;;;;;5067493;28;20044;-71
2021/12/09 14:25:46;;;;;;;10.93;1.65;;;;;;;;;;5067392;28;20037;-72
2021/12/09 14:28:15;;;;;;;13.80;1.70;;;;;;;;;;5067061;28;20039;-67
2021/12/09 14:30:45;;;;;;;6.20;1.17;;;;;;;;;;5050275;28;20040;-67
2021/12/09 14:33:11;;;;;;;8.98;1.20;;;;;;;;;;5068392;28;20032;-66
2021/12/09 14:35:47;;;;;;;6.15;1.17;;;;;;;;;;5068271;28;20028;-67
2021/12/09 14:38:18;;;;;;;7.25;1.02;;;;;;;;;;5049965;28;20029;-67
2021/12/09 14:40:48;;;;;;;7.43;1.17;;;;;;;;;;5068131;28;20499;-67
2021/12/09 14:43:19;;;;;;;7.20;1.17;;;;;;;;;;5066735;28;20047;-66
2021/12/09 14:45:58;;;;;;;8.02;1.23;;;;;;;;;;5066832;28;20032;-66
2021/12/09 14:48:28;;;;;;;9.65;1.20;;;;;;;;;;5068127;28;20040;-69
2021/12/09 14:50:58;;;;;;;8.90;1.30;;;;;;;;;;5066672;28;20028;-66
2021/12/09 14:53:30;;;;;;;6.77;1.10;;;;;;;;;;5070194;28;20134;-66
2021/12/09 14:55:59;;;;;;;15.15;3.08;;;;;;;;;;5084642;28;20047;-68
2021/12/09 14:58:33;;;;;;;8.57;1.77;;;;;;;;;;5085718;28;20218;-71
2021/12/09 15:01:07;;;;;;;8.88;2.45;;;;;;;;;;5075259;28;20039;-73
2021/12/09 15:03:37;;;;;;;8.05;1.48;;;;;;;;;;5084916;28;20114;-67
2021/12/09 15:06:05;;;;;;;7.28;1.73;;;;;;;;;;5102476;28;20062;-67
2021/12/09 15:08:47;;;;;;;5.82;1.20;;;;;;;;;;5087298;28;20036;-66
2021/12/09 15:11:16;;;;;;;6.47;1.33;;;;;;;;;;5086873;28;20536;-67
2021/12/09 15:13:48;;;;;;;6.28;1.25;;;;;;;;;;5086872;28;20035;-67
2021/12/09 15:16:17;;;;;;;6.90;1.67;;;;;;;;;;5074657;28;20075;-67
2021/12/09 15:18:43;;;;;;;4.20;0.85;;;;;;;;;;5047620;28;20043;-68
2021/12/09 15:21:17;;;;;;;6.57;1.45;;;;;;;;;;5085201;28;20050;-67
2021/12/09 15:23:45;;;;;;;5.80;1.20;;;;;;;;;;5068628;28;20028;-69
2021/12/09 15:26:17;;;;;;;6.28;1.48;;;;;;;;;;5070500;28;20085;-68
2021/12/09 15:28:43;;;;;;;5.50;1.58;;;;;;;;;;5087564;28;20042;-68
2021/12/09 15:31:16;;;;;;;6.60;1.85;;;;;;;;;;5072817;28;20124;-70
2021/12/09 15:33:44;;;;;;;19.50;1.90;;;;;;;;;;5090121;28;20483;-67
2021/12/09 15:36:12;;;;;;;10.10;2.70;;;;;;;;;;5090159;28;20040;-71
2021/12/09 15:38:38;;;;;;;8.30;2.20;;;;;;;;;;5091381;28;20030;-66
2021/12/09 15:41:05;;;;;;;7.82;2.70;;;;;;;;;;5072779;28;20560;-67
2021/12/09 15:43:31;;;;;;;7.18;3.03;;;;;;;;;;5086946;28;20025;-67
2021/12/09 15:45:58;;;;;;;14.65;6.72;;;;;;;;;;5089801;28;20076;-67
2021/12/09 15:48:24;;;;;;;14.95;9.45;;;;;;;;;;5087715;28;20039;-67
2021/12/09 15:50:58;;;;;;;17.38;6.85;;;;;;;;;;5071273;28;20050;-69
2021/12/09 15:53:24;;;;;;;10.18;2.28;;;;;;;;;;5072855;28;20802;-66